createdAt,value
2022-12-31T00:00:13.625Z,8.80
2022-12-31T00:02:45.215Z,8.70
2022-12-31T00:05:16.692Z,8.60
2022-12-31T00:07:48.306Z,8.70
2022-12-31T00:10:19.930Z,8.80
2022-12-31T00:12:53.571Z,8.70
2022-12-31T00:15:25.188Z,8.80
2022-12-31T00:17:56.751Z,8.80
2022-12-31T00:20:28.439Z,8.90
2022-12-31T00:22:59.962Z,8.90
2022-12-31T00:25:31.435Z,9.00
2022-12-31T00:28:02.966Z,9.10
2022-12-31T00:30:35.282Z,9.10
2022-12-31T00:33:06.893Z,9.00
2022-12-31T00:35:38.337Z,9.00
2022-12-31T00:38:10.081Z,8.90
2022-12-31T00:40:41.577Z,8.80
2022-12-31T00:43:12.928Z,8.80
2022-12-31T00:45:44.605Z,8.70
2022-12-31T00:48:15.989Z,8.70
2022-12-31T00:50:47.644Z,8.70
2022-12-31T00:53:19.071Z,8.60
2022-12-31T00:55:50.906Z,8.60
2022-12-31T00:58:22.377Z,8.60
2022-12-31T01:00:53.813Z,8.50
2022-12-31T01:03:25.211Z,8.40
2022-12-31T01:06:00.348Z,8.40
2022-12-31T01:08:32.070Z,8.50
2022-12-31T01:11:20.478Z,8.50
2022-12-31T01:13:54.341Z,8.60
2022-12-31T01:16:28.692Z,8.50
2022-12-31T01:19:01.712Z,8.50
2022-12-31T01:21:33.712Z,8.50
2022-12-31T01:24:05.711Z,8.50
2022-12-31T01:26:37.445Z,8.40
2022-12-31T01:29:10.165Z,8.30
2022-12-31T01:31:42.292Z,8.20
2022-12-31T01:34:13.966Z,8.30
2022-12-31T01:36:45.377Z,8.30
2022-12-31T01:39:16.777Z,8.40
2022-12-31T01:41:49.061Z,8.40
2022-12-31T01:44:54.556Z,8.50
2022-12-31T01:47:34.045Z,8.50
2022-12-31T01:50:11.194Z,8.40
2022-12-31T01:52:45.692Z,8.40
2022-12-31T01:55:20.842Z,8.40
2022-12-31T01:57:54.967Z,8.30
2022-12-31T02:00:26.368Z,8.30
2022-12-31T02:02:58.000Z,8.30
2022-12-31T02:05:32.335Z,8.40
2022-12-31T02:08:06.373Z,8.40
2022-12-31T02:10:37.734Z,8.50
2022-12-31T02:13:09.621Z,8.50
2022-12-31T02:15:47.471Z,8.60
2022-12-31T02:18:23.790Z,8.70
2022-12-31T02:21:22.355Z,8.80
2022-12-31T02:24:20.439Z,8.90
2022-12-31T02:27:02.590Z,8.90
2022-12-31T02:30:08.802Z,9.00
2022-12-31T02:32:52.202Z,9.00
2022-12-31T02:35:27.193Z,9.00
2022-12-31T02:38:02.708Z,9.00
2022-12-31T02:40:37.583Z,9.10
2022-12-31T02:43:08.933Z,9.40
2022-12-31T02:45:43.281Z,9.50
2022-12-31T02:48:23.165Z,9.50
2022-12-31T02:50:58.555Z,9.50
2022-12-31T02:53:46.290Z,9.70
2022-12-31T02:56:21.948Z,9.70
2022-12-31T02:59:16.264Z,9.60
2022-12-31T03:02:08.315Z,9.70
2022-12-31T03:04:41.455Z,9.80
2022-12-31T03:07:15.795Z,9.70
2022-12-31T03:09:47.393Z,9.70
2022-12-31T03:12:39.899Z,9.70
2022-12-31T03:15:20.610Z,9.60
2022-12-31T03:17:55.361Z,9.50
2022-12-31T03:20:48.781Z,9.60
2022-12-31T03:23:23.196Z,9.50
2022-12-31T03:25:56.650Z,9.50
2022-12-31T03:28:30.141Z,9.40
2022-12-31T03:31:03.695Z,9.30
2022-12-31T03:33:37.546Z,9.30
2022-12-31T03:36:12.667Z,9.30
2022-12-31T03:38:48.469Z,9.30
2022-12-31T03:41:17.531Z,9.30
2022-12-31T03:43:48.931Z,9.20
2022-12-31T03:46:20.416Z,9.20
2022-12-31T03:48:51.693Z,9.20
2022-12-31T03:51:23.103Z,9.10
2022-12-31T03:53:54.430Z,9.20
2022-12-31T03:56:26.166Z,9.10
2022-12-31T03:58:57.504Z,9.10
2022-12-31T04:01:29.383Z,9.10
2022-12-31T04:04:00.734Z,9.00
2022-12-31T04:06:32.228Z,9.10
2022-12-31T04:09:03.625Z,9.20
2022-12-31T04:11:35.184Z,9.30
2022-12-31T04:14:06.691Z,9.40
2022-12-31T04:16:38.150Z,9.40
2022-12-31T04:19:09.549Z,9.30
2022-12-31T04:21:40.968Z,9.20
2022-12-31T04:24:12.808Z,9.20
2022-12-31T04:26:44.673Z,9.20
2022-12-31T04:29:16.034Z,9.10
2022-12-31T04:31:47.571Z,9.20
2022-12-31T04:34:19.621Z,9.10
2022-12-31T04:36:51.324Z,9.10
2022-12-31T04:39:23.707Z,9.10
2022-12-31T04:41:55.369Z,9.00
2022-12-31T04:44:26.750Z,9.00
2022-12-31T04:46:58.318Z,9.00
2022-12-31T04:49:30.643Z,9.00
2022-12-31T04:52:02.033Z,8.90
2022-12-31T04:54:33.427Z,8.90
2022-12-31T04:57:05.212Z,8.90
2022-12-31T04:59:36.611Z,8.90
2022-12-31T05:02:08.329Z,8.80
2022-12-31T05:04:40.237Z,8.80
2022-12-31T05:07:11.619Z,8.70
2022-12-31T05:09:43.033Z,8.70
2022-12-31T05:12:14.368Z,8.70
2022-12-31T05:14:45.830Z,8.70
2022-12-31T05:17:17.229Z,8.70
2022-12-31T05:19:48.675Z,8.70
2022-12-31T05:22:32.233Z,8.70
2022-12-31T05:25:03.669Z,8.70
2022-12-31T05:27:37.240Z,8.70
2022-12-31T05:30:11.639Z,8.70
2022-12-31T05:32:42.965Z,8.70
2022-12-31T05:35:14.972Z,8.80
2022-12-31T05:37:46.560Z,8.80
2022-12-31T05:40:18.238Z,8.80
2022-12-31T05:42:50.404Z,8.80
2022-12-31T05:45:26.742Z,8.90
2022-12-31T05:47:54.786Z,9.00
2022-12-31T05:50:26.251Z,9.10
2022-12-31T05:52:57.556Z,9.20
2022-12-31T05:55:29.137Z,9.20
2022-12-31T05:58:00.507Z,9.10
2022-12-31T06:00:31.953Z,9.00
2022-12-31T06:03:03.376Z,8.90
2022-12-31T06:05:34.912Z,8.90
2022-12-31T06:08:06.748Z,8.80
2022-12-31T06:10:38.172Z,8.80
2022-12-31T06:13:11.214Z,8.70
2022-12-31T06:15:43.061Z,8.80
2022-12-31T06:18:14.369Z,8.70
2022-12-31T06:20:45.849Z,8.80
2022-12-31T06:23:17.240Z,8.80
2022-12-31T06:25:48.775Z,8.80
2022-12-31T06:28:20.773Z,8.70
2022-12-31T06:30:52.587Z,8.70
2022-12-31T06:33:23.907Z,8.70
2022-12-31T06:35:58.643Z,8.70
2022-12-31T06:38:32.617Z,8.70
2022-12-31T06:41:05.981Z,8.80
2022-12-31T06:43:38.802Z,9.00
2022-12-31T06:46:12.142Z,9.20
2022-12-31T06:48:44.899Z,9.10
2022-12-31T06:51:19.024Z,9.00
2022-12-31T06:53:52.017Z,9.00
2022-12-31T06:56:34.032Z,9.00
2022-12-31T06:59:02.857Z,9.10
2022-12-31T07:01:46.882Z,9.10
2022-12-31T07:04:35.977Z,9.00
2022-12-31T07:07:10.997Z,9.00
2022-12-31T07:09:46.080Z,8.90
2022-12-31T07:12:21.603Z,9.00
2022-12-31T07:14:56.004Z,8.90
2022-12-31T07:17:31.079Z,8.90
2022-12-31T07:20:05.779Z,8.80
2022-12-31T07:22:38.215Z,8.80
2022-12-31T07:25:15.438Z,8.80
2022-12-31T07:27:57.030Z,8.70
2022-12-31T07:30:32.096Z,8.60
2022-12-31T07:33:17.003Z,8.50
2022-12-31T07:35:54.381Z,8.60
2022-12-31T07:38:29.945Z,8.60
2022-12-31T07:41:09.925Z,8.70
2022-12-31T07:43:48.160Z,8.70
2022-12-31T07:46:22.671Z,8.70
2022-12-31T07:48:55.887Z,8.70
2022-12-31T07:51:29.352Z,8.80
2022-12-31T07:54:00.693Z,8.90
2022-12-31T07:56:32.880Z,9.00
2022-12-31T07:59:09.122Z,9.10
2022-12-31T08:01:46.363Z,9.20
2022-12-31T08:04:24.042Z,9.40
2022-12-31T08:07:01.594Z,9.40
2022-12-31T08:09:40.814Z,9.50
2022-12-31T08:12:12.602Z,9.60
2022-12-31T08:14:48.026Z,9.70
2022-12-31T08:17:21.331Z,9.80
2022-12-31T08:19:53.821Z,9.80
2022-12-31T08:22:41.564Z,9.70
2022-12-31T08:25:20.799Z,9.80
2022-12-31T08:27:59.110Z,9.70
2022-12-31T08:30:51.359Z,9.70
2022-12-31T08:33:25.757Z,9.50
2022-12-31T08:36:07.116Z,9.40
2022-12-31T08:38:43.284Z,9.40
2022-12-31T08:41:19.543Z,9.30
2022-12-31T08:43:55.924Z,9.30
2022-12-31T08:46:31.637Z,9.40
2022-12-31T08:49:04.439Z,9.40
2022-12-31T08:51:38.987Z,9.40
2022-12-31T08:54:13.460Z,9.40
2022-12-31T08:56:50.801Z,9.40
2022-12-31T08:59:29.950Z,9.30
2022-12-31T09:02:46.276Z,9.20
2022-12-31T09:08:00.918Z,9.20
2022-12-31T09:10:35.437Z,9.20
2022-12-31T09:13:09.951Z,9.20
2022-12-31T09:15:46.536Z,9.30
2022-12-31T09:18:18.853Z,9.30
2022-12-31T09:20:50.874Z,9.30
2022-12-31T09:23:25.885Z,9.30
2022-12-31T09:26:00.856Z,9.40
2022-12-31T09:28:40.324Z,9.60
2022-12-31T09:31:15.341Z,9.70
2022-12-31T09:33:51.874Z,9.80
2022-12-31T09:36:26.451Z,9.90
2022-12-31T09:39:02.763Z,10.00
2022-12-31T09:42:00.916Z,10.00
2022-12-31T09:45:21.703Z,10.10
2022-12-31T09:48:18.460Z,10.10
2022-12-31T09:51:05.867Z,10.20
2022-12-31T09:54:04.694Z,10.30
2022-12-31T09:56:39.473Z,10.30
2022-12-31T09:59:15.942Z,10.40
2022-12-31T10:01:52.161Z,10.50
2022-12-31T10:04:38.441Z,10.70
2022-12-31T10:07:35.657Z,10.70
2022-12-31T10:10:13.045Z,10.90
2022-12-31T10:13:05.262Z,11.00
2022-12-31T10:15:48.751Z,11.20
2022-12-31T10:18:26.902Z,11.50
2022-12-31T10:21:09.451Z,11.70
2022-12-31T10:23:57.401Z,11.90
2022-12-31T10:26:37.758Z,11.90
2022-12-31T10:29:16.551Z,12.10
2022-12-31T10:31:51.930Z,12.10
2022-12-31T10:34:27.507Z,12.00
2022-12-31T10:37:02.143Z,12.00
2022-12-31T10:40:06.800Z,12.10
2022-12-31T10:43:27.488Z,12.10
2022-12-31T10:46:22.464Z,12.30
2022-12-31T10:49:32.557Z,12.40
2022-12-31T10:52:44.866Z,12.50
2022-12-31T10:56:15.279Z,12.60
2022-12-31T10:59:28.950Z,12.60
2022-12-31T11:02:04.411Z,12.70
2022-12-31T11:05:05.017Z,12.70
2022-12-31T11:08:00.039Z,12.80
2022-12-31T11:10:58.927Z,12.90
2022-12-31T11:14:06.597Z,12.90
2022-12-31T11:17:06.067Z,13.00
2022-12-31T11:19:42.087Z,13.00
2022-12-31T11:25:32.741Z,13.20
2022-12-31T11:28:18.828Z,13.20
2022-12-31T11:30:59.208Z,13.20
2022-12-31T11:33:34.661Z,13.10
2022-12-31T11:36:16.356Z,13.10
2022-12-31T11:38:52.297Z,13.10
2022-12-31T11:41:28.562Z,13.10
2022-12-31T11:44:05.434Z,13.20
2022-12-31T11:47:00.526Z,13.30
2022-12-31T11:49:57.944Z,13.50
2022-12-31T11:52:36.602Z,13.60
2022-12-31T11:55:19.194Z,13.60
2022-12-31T11:57:53.306Z,13.60
2022-12-31T12:00:26.505Z,13.60
2022-12-31T12:03:00.580Z,13.60
2022-12-31T12:05:33.100Z,13.50
2022-12-31T12:08:05.325Z,13.60
2022-12-31T12:10:40.762Z,13.60
2022-12-31T12:13:22.648Z,13.60
2022-12-31T12:15:56.531Z,13.70
2022-12-31T12:18:31.543Z,13.80
2022-12-31T12:21:08.626Z,14.00
2022-12-31T12:23:42.717Z,14.00
2022-12-31T12:26:30.531Z,14.20
2022-12-31T12:29:10.349Z,14.20
2022-12-31T12:31:42.011Z,14.30
2022-12-31T12:34:25.253Z,14.60
2022-12-31T12:36:56.723Z,14.60
2022-12-31T12:39:31.117Z,14.60
2022-12-31T12:42:04.836Z,14.70
2022-12-31T12:44:36.425Z,14.60
2022-12-31T12:47:10.637Z,14.70
2022-12-31T12:49:44.687Z,14.60
2022-12-31T12:52:59.496Z,14.70
2022-12-31T12:55:34.665Z,14.70
2022-12-31T12:58:10.774Z,14.70
2022-12-31T13:00:46.764Z,14.70
2022-12-31T13:04:07.696Z,14.70
2022-12-31T13:06:28.589Z,14.70
2022-12-31T13:09:07.841Z,14.60
2022-12-31T13:11:44.058Z,14.60
2022-12-31T13:14:20.256Z,14.50
2022-12-31T13:16:55.978Z,14.40
2022-12-31T13:19:32.478Z,14.40
2022-12-31T13:22:07.528Z,14.30
2022-12-31T13:24:47.664Z,14.30
2022-12-31T13:27:22.371Z,14.30
2022-12-31T13:29:56.679Z,14.20
2022-12-31T13:32:31.374Z,14.20
2022-12-31T13:35:08.895Z,14.20
2022-12-31T13:37:43.129Z,14.10
2022-12-31T13:40:20.827Z,14.00
2022-12-31T13:42:56.999Z,14.00
2022-12-31T13:45:31.404Z,14.10
2022-12-31T13:48:06.643Z,14.00
2022-12-31T13:50:42.323Z,14.10
2022-12-31T13:53:20.192Z,14.00
2022-12-31T13:55:57.046Z,14.00
2022-12-31T13:58:33.444Z,14.00
2022-12-31T14:01:10.434Z,14.00
2022-12-31T14:03:46.797Z,14.00
2022-12-31T14:06:22.291Z,14.00
2022-12-31T14:08:54.707Z,13.90
2022-12-31T14:11:34.820Z,13.80
2022-12-31T14:14:13.933Z,13.70
2022-12-31T14:16:51.262Z,13.70
2022-12-31T14:19:32.493Z,13.70
2022-12-31T14:22:04.441Z,13.50
2022-12-31T14:24:43.889Z,13.40
2022-12-31T14:27:19.421Z,13.30
2022-12-31T14:29:53.728Z,13.20
2022-12-31T14:32:34.778Z,13.20
2022-12-31T14:35:08.427Z,13.10
2022-12-31T14:37:43.671Z,13.00
2022-12-31T14:40:20.796Z,12.90
2022-12-31T14:42:58.936Z,12.80
2022-12-31T14:45:36.208Z,12.80
2022-12-31T14:48:16.007Z,12.70
2022-12-31T14:50:47.829Z,12.60
2022-12-31T14:53:24.133Z,12.50
2022-12-31T14:56:00.924Z,12.40
2022-12-31T14:58:35.217Z,12.30
2022-12-31T15:01:10.430Z,12.30
2022-12-31T15:03:46.051Z,12.20
2022-12-31T15:06:50.148Z,12.10
2022-12-31T15:09:32.547Z,12.00
2022-12-31T15:12:14.206Z,11.90
2022-12-31T15:14:58.717Z,11.80
2022-12-31T15:17:36.660Z,11.70
2022-12-31T15:20:41.266Z,11.60
2022-12-31T15:23:20.560Z,11.50
2022-12-31T15:25:55.233Z,11.40
2022-12-31T15:28:32.887Z,11.30
2022-12-31T15:31:14.475Z,11.10
2022-12-31T15:33:44.919Z,11.00
2022-12-31T15:36:20.405Z,10.90
2022-12-31T15:38:52.289Z,10.90
2022-12-31T15:41:29.963Z,10.80
2022-12-31T15:44:04.438Z,10.70
2022-12-31T15:46:39.522Z,10.60
2022-12-31T15:49:16.528Z,10.60
2022-12-31T15:51:51.650Z,10.60
2022-12-31T15:54:27.463Z,10.50
2022-12-31T15:57:04.235Z,10.40
2022-12-31T15:59:33.665Z,10.40
2022-12-31T16:02:05.488Z,10.40
2022-12-31T16:04:38.670Z,10.20
2022-12-31T16:07:12.575Z,10.10
2022-12-31T16:09:45.015Z,10.00
2022-12-31T16:12:21.928Z,9.90
2022-12-31T16:14:55.525Z,9.80
2022-12-31T16:17:30.063Z,9.70
2022-12-31T16:20:03.133Z,9.80
2022-12-31T16:22:43.126Z,9.90
2022-12-31T16:25:31.137Z,10.00
2022-12-31T16:27:56.954Z,9.90
2022-12-31T16:30:31.023Z,9.80
2022-12-31T16:33:04.047Z,9.80
2022-12-31T16:35:36.931Z,9.70
2022-12-31T16:38:16.915Z,9.60
2022-12-31T16:40:55.536Z,9.60
2022-12-31T16:43:29.433Z,9.60
2022-12-31T16:46:03.523Z,9.60
2022-12-31T16:48:41.408Z,9.50
2022-12-31T16:51:16.991Z,9.60
2022-12-31T16:53:49.391Z,9.60
2022-12-31T16:56:27.948Z,9.60
2022-12-31T16:59:03.601Z,9.60
2022-12-31T17:01:38.046Z,9.50
2022-12-31T17:04:12.083Z,9.50
2022-12-31T17:06:44.616Z,9.40
2022-12-31T17:09:20.352Z,9.40
2022-12-31T17:11:55.005Z,9.30
2022-12-31T17:14:28.083Z,9.30
2022-12-31T17:17:03.588Z,9.20
2022-12-31T17:19:40.695Z,9.10
2022-12-31T17:22:16.276Z,9.00
2022-12-31T17:24:51.202Z,8.90
2022-12-31T17:27:22.676Z,8.90
2022-12-31T17:29:54.125Z,8.90
2022-12-31T17:32:34.371Z,8.90
2022-12-31T17:35:28.889Z,8.90
2022-12-31T17:38:30.157Z,8.80
2022-12-31T17:41:05.302Z,8.70
2022-12-31T17:43:38.056Z,8.70
2022-12-31T17:46:13.810Z,8.60
2022-12-31T17:48:48.946Z,8.60
2022-12-31T17:51:24.668Z,8.70
2022-12-31T17:53:53.599Z,8.60
2022-12-31T17:56:26.092Z,8.60
2022-12-31T17:58:57.915Z,8.50
2022-12-31T18:01:29.359Z,8.50
2022-12-31T18:04:01.042Z,8.40
2022-12-31T18:06:32.405Z,8.40
2022-12-31T18:09:07.155Z,8.30
2022-12-31T18:11:39.597Z,8.30
2022-12-31T18:14:14.494Z,8.30
2022-12-31T18:16:46.068Z,8.40
2022-12-31T18:19:38.224Z,8.30
2022-12-31T18:21:51.274Z,8.20
2022-12-31T18:24:38.266Z,8.20
2022-12-31T18:27:17.132Z,8.20
2022-12-31T18:29:48.927Z,8.20
2022-12-31T18:32:24.847Z,8.10
2022-12-31T18:34:57.375Z,8.00
2022-12-31T18:37:31.026Z,8.00
2022-12-31T18:40:02.574Z,8.10
2022-12-31T18:42:34.406Z,8.10
2022-12-31T18:45:08.452Z,8.10
2022-12-31T18:47:39.917Z,8.10
2022-12-31T18:50:15.737Z,8.20
2022-12-31T18:52:47.152Z,8.20
2022-12-31T18:55:25.312Z,8.20
2022-12-31T18:57:56.742Z,8.30
2022-12-31T19:00:28.212Z,8.30
2022-12-31T19:03:01.139Z,8.30
2022-12-31T19:05:34.847Z,8.30
2022-12-31T19:08:06.797Z,8.30
2022-12-31T19:10:38.161Z,8.30
2022-12-31T19:13:12.874Z,8.30
2022-12-31T19:15:46.087Z,8.30
2022-12-31T19:18:17.904Z,8.20
2022-12-31T19:20:49.990Z,8.20
2022-12-31T19:23:22.693Z,8.20
2022-12-31T19:25:54.182Z,8.20
2022-12-31T19:28:28.637Z,8.20
2022-12-31T19:31:00.034Z,8.30
2022-12-31T19:33:31.573Z,8.20
2022-12-31T19:36:03.173Z,8.20
2022-12-31T19:38:34.935Z,8.20
2022-12-31T19:41:07.214Z,8.20
2022-12-31T19:43:38.799Z,8.40
2022-12-31T19:46:14.025Z,8.50
2022-12-31T19:48:46.209Z,8.50
2022-12-31T19:51:20.762Z,8.60
2022-12-31T19:53:52.359Z,8.70
2022-12-31T19:56:23.744Z,8.60
2022-12-31T19:58:55.297Z,8.70
2022-12-31T20:01:27.516Z,8.70
2022-12-31T20:03:59.064Z,8.80
2022-12-31T20:06:30.419Z,8.90
2022-12-31T20:09:03.142Z,8.80
2022-12-31T20:11:34.468Z,8.70
2022-12-31T20:14:05.916Z,8.40
2022-12-31T20:16:38.095Z,8.40
2022-12-31T20:19:10.672Z,8.20
2022-12-31T20:21:43.797Z,8.20
2022-12-31T20:24:15.333Z,8.00
2022-12-31T20:26:46.792Z,8.00
2022-12-31T20:29:18.469Z,7.80
2022-12-31T20:31:50.033Z,7.70
2022-12-31T20:34:21.516Z,7.60
2022-12-31T20:36:53.139Z,7.50
2022-12-31T20:39:24.669Z,7.50
2022-12-31T20:41:56.293Z,7.50
2022-12-31T20:44:27.651Z,7.40
2022-12-31T20:46:59.085Z,7.40
2022-12-31T20:50:00.938Z,7.40
2022-12-31T20:52:05.382Z,7.30
2022-12-31T20:54:37.333Z,7.30
2022-12-31T20:57:09.085Z,7.20
2022-12-31T20:59:40.560Z,7.30
2022-12-31T21:02:29.527Z,7.30
2022-12-31T21:04:48.188Z,7.30
2022-12-31T21:07:19.806Z,7.30
2022-12-31T21:09:51.152Z,7.30
2022-12-31T21:12:40.460Z,7.30
2022-12-31T21:15:13.799Z,7.40
2022-12-31T21:17:46.103Z,7.50
2022-12-31T21:20:17.621Z,7.60
2022-12-31T21:22:49.334Z,7.80
2022-12-31T21:25:20.689Z,7.80
2022-12-31T21:27:52.093Z,7.90
2022-12-31T21:30:23.594Z,7.90
2022-12-31T21:32:55.109Z,7.90
2022-12-31T21:35:48.390Z,8.00
2022-12-31T21:38:02.853Z,8.00
2022-12-31T21:40:34.725Z,8.00
2022-12-31T21:43:06.135Z,7.80
2022-12-31T21:45:37.602Z,7.60
2022-12-31T21:48:24.841Z,7.50
2022-12-31T21:50:59.661Z,7.40
2022-12-31T21:53:36.570Z,7.30
2022-12-31T21:56:11.648Z,7.20
2022-12-31T21:58:45.398Z,7.20
2022-12-31T22:01:40.029Z,7.20
2022-12-31T22:04:35.242Z,7.30
2022-12-31T22:06:44.516Z,7.50
2022-12-31T22:09:16.789Z,7.50
2022-12-31T22:11:48.339Z,7.50
2022-12-31T22:14:19.780Z,7.60
2022-12-31T22:16:51.120Z,7.60
2022-12-31T22:19:22.587Z,7.50
2022-12-31T22:21:53.987Z,7.30
2022-12-31T22:24:25.490Z,7.20
2022-12-31T22:26:57.017Z,7.20
2022-12-31T22:29:28.358Z,7.20
2022-12-31T22:32:10.885Z,7.20
2022-12-31T22:34:42.265Z,7.20
2022-12-31T22:37:35.776Z,7.20
2022-12-31T22:39:47.744Z,7.30
2022-12-31T22:42:19.238Z,7.40
2022-12-31T22:44:50.579Z,7.40
2022-12-31T22:47:22.153Z,7.50
2022-12-31T22:49:53.818Z,7.60
2022-12-31T22:52:25.329Z,7.80
2022-12-31T22:54:56.664Z,7.90
2022-12-31T22:57:28.201Z,7.90
2022-12-31T23:00:00.689Z,7.80
2022-12-31T23:02:35.943Z,7.70
2022-12-31T23:05:15.914Z,7.70
2022-12-31T23:07:40.024Z,7.50
2022-12-31T23:10:30.705Z,7.40
2022-12-31T23:13:03.800Z,7.30
2022-12-31T23:15:53.172Z,7.20
2022-12-31T23:18:42.386Z,7.20
2022-12-31T23:21:32.638Z,7.10
2022-12-31T23:24:04.483Z,7.10
2022-12-31T23:26:35.863Z,7.00
2022-12-31T23:29:07.279Z,6.90
2022-12-31T23:31:39.619Z,6.90
2022-12-31T23:34:11.152Z,6.90
2022-12-31T23:36:42.621Z,6.90
2022-12-31T23:39:14.194Z,6.90
2022-12-31T23:41:45.515Z,6.90
2022-12-31T23:44:16.989Z,6.90
2022-12-31T23:46:48.442Z,7.00
2022-12-31T23:49:20.005Z,7.10
2022-12-31T23:51:51.677Z,7.10
2022-12-31T23:54:23.115Z,7.00
2022-12-31T23:56:54.505Z,6.90
2022-12-31T23:59:25.914Z,6.90
